createdAt,value
2018-01-03T00:01:20.220Z,1006.04
2018-01-03T00:02:47.305Z,1006.03
2018-01-03T00:04:13.883Z,1005.98
2018-01-03T00:05:41.061Z,1005.94
2018-01-03T00:07:08.362Z,1005.91
2018-01-03T00:08:35.212Z,1005.91
2018-01-03T00:10:02.577Z,1005.90
2018-01-03T00:11:29.802Z,1005.88
2018-01-03T00:12:57.099Z,1005.86
2018-01-03T00:14:24.415Z,1005.80
2018-01-03T00:15:51.635Z,1005.76
2018-01-03T00:17:19.114Z,1005.73
2018-01-03T00:18:46.077Z,1005.71
2018-01-03T00:20:13.328Z,1005.66
2018-01-03T00:21:40.000Z,1005.60
2018-01-03T00:23:07.392Z,1005.50
2018-01-03T00:24:34.562Z,1005.45
2018-01-03T00:26:02.052Z,1005.42
2018-01-03T00:27:28.697Z,1005.35
2018-01-03T00:28:55.712Z,1005.32
2018-01-03T00:30:23.027Z,1005.24
2018-01-03T00:31:50.095Z,1005.18
2018-01-03T00:33:17.209Z,1005.17
2018-01-03T00:34:44.277Z,1005.12
2018-01-03T00:36:11.567Z,1005.06
2018-01-03T00:37:38.551Z,1005.02
2018-01-03T00:39:05.848Z,1004.95
2018-01-03T00:40:33.283Z,1004.88
2018-01-03T00:42:00.573Z,1004.83
2018-01-03T00:43:27.904Z,1004.77
2018-01-03T00:44:55.104Z,1004.69
2018-01-03T00:46:21.904Z,1004.63
2018-01-03T00:47:49.083Z,1004.56
2018-01-03T00:49:16.203Z,1004.50
2018-01-03T00:50:43.248Z,1004.40
2018-01-03T00:52:10.511Z,1004.33
2018-01-03T00:53:37.809Z,1004.23
2018-01-03T00:55:04.900Z,1004.19
2018-01-03T00:56:32.040Z,1004.14
2018-01-03T00:57:59.021Z,1004.11
2018-01-03T00:59:26.336Z,1004.08
2018-01-03T01:00:53.290Z,1004.05
2018-01-03T01:02:20.409Z,1004.04
2018-01-03T01:03:47.659Z,1004.01
2018-01-03T01:05:14.678Z,1003.96
2018-01-03T01:06:41.773Z,1003.91
2018-01-03T01:08:09.055Z,1003.78
2018-01-03T01:09:36.563Z,1003.76
2018-01-03T01:11:03.736Z,1003.73
2018-01-03T01:12:30.906Z,1003.68
2018-01-03T01:13:58.044Z,1003.63
2018-01-03T01:15:25.157Z,1003.57
2018-01-03T01:16:52.372Z,1003.52
2018-01-03T01:18:19.763Z,1003.45
2018-01-03T01:19:46.694Z,1003.40
2018-01-03T01:21:13.844Z,1003.30
2018-01-03T01:22:41.257Z,1003.25
2018-01-03T01:24:08.128Z,1003.16
2018-01-03T01:25:35.209Z,1003.11
2018-01-03T01:27:02.113Z,1003.08
2018-01-03T01:28:29.262Z,1003.01
2018-01-03T01:29:56.518Z,1002.95
2018-01-03T01:31:23.539Z,1002.87
2018-01-03T01:32:50.648Z,1002.81
2018-01-03T01:34:17.678Z,1002.82
2018-01-03T01:35:44.680Z,1002.80
2018-01-03T01:37:11.932Z,1002.79
2018-01-03T01:38:39.188Z,1002.71
2018-01-03T01:40:06.227Z,1002.67
2018-01-03T01:41:33.211Z,1002.62
2018-01-03T01:43:00.360Z,1002.58
2018-01-03T01:44:27.636Z,1002.54
2018-01-03T01:45:54.770Z,1002.46
2018-01-03T01:47:21.827Z,1002.45
2018-01-03T01:48:48.970Z,1002.40
2018-01-03T01:50:15.572Z,1002.40
2018-01-03T01:51:42.811Z,1002.33
2018-01-03T01:53:09.966Z,1002.24
2018-01-03T01:54:36.970Z,1002.19
2018-01-03T01:56:04.289Z,1002.09
2018-01-03T01:57:31.144Z,1002.01
2018-01-03T01:58:58.330Z,1001.94
2018-01-03T02:00:25.409Z,1001.88
2018-01-03T02:01:52.675Z,1001.80
2018-01-03T02:03:19.898Z,1001.75
2018-01-03T02:04:46.960Z,1001.71
2018-01-03T02:06:13.917Z,1001.65
2018-01-03T02:07:41.277Z,1001.58
2018-01-03T02:09:08.176Z,1001.48
2018-01-03T02:10:35.378Z,1001.41
2018-01-03T02:12:02.605Z,1001.31
2018-01-03T02:13:29.843Z,1001.23
2018-01-03T02:14:57.107Z,1001.18
2018-01-03T02:16:24.435Z,1001.10
2018-01-03T02:17:54.625Z,1001.00
2018-01-03T02:19:18.613Z,1000.98
2018-01-03T02:20:45.616Z,1000.93
2018-01-03T02:22:12.776Z,1000.94
2018-01-03T02:23:39.370Z,1000.84
2018-01-03T02:25:06.554Z,1000.82
2018-01-03T02:26:36.835Z,1000.80
2018-01-03T02:28:01.109Z,1000.76
2018-01-03T02:29:28.365Z,1000.68
2018-01-03T02:30:55.303Z,1000.60
2018-01-03T02:32:22.433Z,1000.57
2018-01-03T02:33:49.129Z,1000.56
2018-01-03T02:35:16.274Z,1000.53
2018-01-03T02:36:43.375Z,1000.41
2018-01-03T02:38:10.758Z,1000.31
2018-01-03T02:39:37.973Z,1000.25
2018-01-03T02:41:05.437Z,1000.18
2018-01-03T02:42:32.547Z,1000.07
2018-01-03T02:43:59.707Z,1000.00
2018-01-03T02:45:26.953Z,999.97
2018-01-03T02:46:54.203Z,999.88
2018-01-03T02:48:21.532Z,999.79
2018-01-03T02:49:48.820Z,999.71
2018-01-03T02:51:15.978Z,999.62
2018-01-03T02:52:43.462Z,999.55
2018-01-03T02:54:10.835Z,999.47
2018-01-03T02:55:38.012Z,999.35
2018-01-03T02:57:05.269Z,999.29
2018-01-03T02:58:32.289Z,999.22
2018-01-03T02:59:59.610Z,999.15
2018-01-03T03:01:26.798Z,999.08
2018-01-03T03:02:53.984Z,998.93
2018-01-03T03:04:21.150Z,998.85
2018-01-03T03:05:48.004Z,998.75
2018-01-03T03:07:15.225Z,998.68
2018-01-03T03:08:42.454Z,998.68
2018-01-03T03:10:09.732Z,998.63
2018-01-03T03:11:36.749Z,998.62
2018-01-03T03:13:04.173Z,998.56
2018-01-03T03:14:31.159Z,998.49
2018-01-03T03:15:58.355Z,998.47
2018-01-03T03:17:25.631Z,998.41
2018-01-03T03:18:52.436Z,998.28
2018-01-03T03:20:19.640Z,998.26
2018-01-03T03:21:46.492Z,998.16
2018-01-03T03:23:13.643Z,998.08
2018-01-03T03:24:40.320Z,998.02
2018-01-03T03:26:07.576Z,997.94
2018-01-03T03:27:34.766Z,997.86
2018-01-03T03:29:02.046Z,997.85
2018-01-03T03:30:28.437Z,997.77
2018-01-03T03:31:55.665Z,997.69
2018-01-03T03:33:22.821Z,997.65
2018-01-03T03:34:49.677Z,997.59
2018-01-03T03:36:16.666Z,997.49
2018-01-03T03:37:43.292Z,997.50
2018-01-03T03:39:10.309Z,997.40
2018-01-03T03:40:37.244Z,997.38
2018-01-03T03:42:04.462Z,997.33
2018-01-03T03:43:31.638Z,997.25
2018-01-03T03:44:58.903Z,997.23
2018-01-03T03:46:26.234Z,997.15
2018-01-03T03:47:53.233Z,997.05
2018-01-03T03:49:20.386Z,996.98
2018-01-03T03:50:47.564Z,996.91
2018-01-03T03:52:14.467Z,996.83
2018-01-03T03:53:41.935Z,996.67
2018-01-03T03:55:09.130Z,996.62
2018-01-03T03:56:36.172Z,996.52
2018-01-03T03:58:03.328Z,996.47
2018-01-03T03:59:30.609Z,996.33
2018-01-03T04:00:57.568Z,996.28
2018-01-03T04:02:24.563Z,996.14
2018-01-03T04:03:51.460Z,996.07
2018-01-03T04:05:18.736Z,995.93
2018-01-03T04:06:45.795Z,995.86
2018-01-03T04:08:12.975Z,995.79
2018-01-03T04:09:40.193Z,995.72
2018-01-03T04:11:07.442Z,995.61
2018-01-03T04:12:34.499Z,995.52
2018-01-03T04:14:01.837Z,995.40
2018-01-03T04:15:28.644Z,995.37
2018-01-03T04:16:55.855Z,995.24
2018-01-03T04:18:23.055Z,995.11
2018-01-03T04:19:50.266Z,995.05
2018-01-03T04:21:17.463Z,995.03
2018-01-03T04:22:44.017Z,994.97
2018-01-03T04:24:11.057Z,994.95
2018-01-03T04:25:38.165Z,994.87
2018-01-03T04:27:05.260Z,994.83
2018-01-03T04:28:32.650Z,994.73
2018-01-03T04:29:59.870Z,994.67
2018-01-03T04:31:26.962Z,994.60
2018-01-03T04:32:54.221Z,994.53
2018-01-03T04:34:21.294Z,994.45
2018-01-03T04:35:48.497Z,994.36
2018-01-03T04:37:15.842Z,994.31
2018-01-03T04:38:43.105Z,994.24
2018-01-03T04:40:10.276Z,994.19
2018-01-03T04:41:37.580Z,994.12
2018-01-03T04:43:04.753Z,994.06
2018-01-03T04:44:31.997Z,994.01
2018-01-03T04:45:59.288Z,993.97
2018-01-03T04:47:26.275Z,993.94
2018-01-03T04:48:53.414Z,993.91
2018-01-03T04:50:20.688Z,993.83
2018-01-03T04:51:47.787Z,993.79
2018-01-03T04:53:14.748Z,993.72
2018-01-03T04:54:41.802Z,993.65
2018-01-03T04:56:09.105Z,993.59
2018-01-03T04:57:36.281Z,993.55
2018-01-03T04:59:03.667Z,993.48
2018-01-03T05:00:30.378Z,993.37
2018-01-03T05:01:57.768Z,993.31
2018-01-03T05:03:25.020Z,993.28
2018-01-03T05:04:51.668Z,993.18
2018-01-03T05:06:18.966Z,993.09
2018-01-03T05:07:46.067Z,993.00
2018-01-03T05:09:13.361Z,992.88
2018-01-03T05:10:40.596Z,992.80
2018-01-03T05:12:07.864Z,992.71
2018-01-03T05:13:34.980Z,992.59
2018-01-03T05:15:02.146Z,992.51
2018-01-03T05:16:28.954Z,992.44
2018-01-03T05:17:56.290Z,992.42
2018-01-03T05:19:23.358Z,992.36
2018-01-03T05:20:50.608Z,992.24
2018-01-03T05:22:17.934Z,992.16
2018-01-03T05:23:45.216Z,992.07
2018-01-03T05:25:12.320Z,991.94
2018-01-03T05:26:39.599Z,991.87
2018-01-03T05:28:06.528Z,991.87
2018-01-03T05:29:33.535Z,991.72
2018-01-03T05:31:00.745Z,991.61
2018-01-03T05:32:27.949Z,991.45
2018-01-03T05:33:55.168Z,991.33
2018-01-03T05:35:22.192Z,991.28
2018-01-03T05:36:49.122Z,991.19
2018-01-03T05:38:16.010Z,991.13
2018-01-03T05:39:43.500Z,991.02
2018-01-03T05:41:10.914Z,990.96
2018-01-03T05:42:38.168Z,990.85
2018-01-03T05:44:05.448Z,990.82
2018-01-03T05:45:32.656Z,990.74
2018-01-03T05:46:59.747Z,990.62
2018-01-03T05:48:27.042Z,990.58
2018-01-03T05:49:53.986Z,990.52
2018-01-03T05:51:22.007Z,990.44
2018-01-03T05:52:48.104Z,990.40
2018-01-03T05:54:15.429Z,990.28
2018-01-03T05:55:42.352Z,990.27
2018-01-03T05:57:09.446Z,990.19
2018-01-03T05:58:36.300Z,990.10
2018-01-03T06:00:03.317Z,990.19
2018-01-03T06:01:30.552Z,990.24
2018-01-03T06:02:57.847Z,990.18
2018-01-03T06:04:24.952Z,990.14
2018-01-03T06:05:52.056Z,990.14
2018-01-03T06:07:19.321Z,990.05
2018-01-03T06:08:46.546Z,990.01
2018-01-03T06:10:13.334Z,989.96
2018-01-03T06:11:40.702Z,989.81
2018-01-03T06:13:07.970Z,989.69
2018-01-03T06:14:34.612Z,989.63
2018-01-03T06:16:01.958Z,989.49
2018-01-03T06:17:28.699Z,989.40
2018-01-03T06:18:55.888Z,989.30
2018-01-03T06:20:23.182Z,989.34
2018-01-03T06:21:50.144Z,989.26
2018-01-03T06:23:17.342Z,989.27
2018-01-03T06:24:44.315Z,989.25
2018-01-03T06:26:11.510Z,989.21
2018-01-03T06:27:38.820Z,989.08
2018-01-03T06:29:06.144Z,989.00
2018-01-03T06:30:33.084Z,988.99
2018-01-03T06:32:00.138Z,988.96
2018-01-03T06:33:27.397Z,988.93
2018-01-03T06:34:53.932Z,988.81
2018-01-03T06:36:21.116Z,988.74
2018-01-03T06:37:47.984Z,988.67
2018-01-03T06:39:15.208Z,988.51
2018-01-03T06:40:42.441Z,988.47
2018-01-03T06:42:09.556Z,988.35
2018-01-03T06:43:36.793Z,988.29
2018-01-03T06:45:04.010Z,988.18
2018-01-03T06:46:31.357Z,988.08
2018-01-03T06:47:58.402Z,988.04
2018-01-03T06:49:25.427Z,987.97
2018-01-03T06:50:52.811Z,987.99
2018-01-03T06:52:20.045Z,987.93
2018-01-03T06:53:47.184Z,987.89
2018-01-03T06:55:14.141Z,987.89
2018-01-03T06:56:41.354Z,987.78
2018-01-03T06:58:08.774Z,987.73
2018-01-03T06:59:35.986Z,987.66
2018-01-03T07:01:03.182Z,987.59
2018-01-03T07:02:30.452Z,987.51
2018-01-03T07:03:57.853Z,987.48
2018-01-03T07:05:25.148Z,987.41
2018-01-03T07:06:52.290Z,987.31
2018-01-03T07:08:19.606Z,987.28
2018-01-03T07:09:46.812Z,987.25
2018-01-03T07:11:13.855Z,987.24
2018-01-03T07:12:40.784Z,987.17
2018-01-03T07:14:07.956Z,987.11
2018-01-03T07:15:35.174Z,986.98
2018-01-03T07:17:02.402Z,986.83
2018-01-03T07:18:29.457Z,986.81
2018-01-03T07:19:56.712Z,986.87
2018-01-03T07:21:23.757Z,986.86
2018-01-03T07:22:51.009Z,986.94
2018-01-03T07:24:17.998Z,986.97
2018-01-03T07:25:45.121Z,986.88
2018-01-03T07:27:12.511Z,986.88
2018-01-03T07:28:39.558Z,986.83
2018-01-03T07:30:06.726Z,986.68
2018-01-03T07:31:33.996Z,986.58
2018-01-03T07:33:01.220Z,986.38
2018-01-03T07:34:28.358Z,986.23
2018-01-03T07:35:55.427Z,986.15
2018-01-03T07:37:22.726Z,986.15
2018-01-03T07:38:49.932Z,986.10
2018-01-03T07:40:17.151Z,986.12
2018-01-03T07:41:44.033Z,986.00
2018-01-03T07:43:11.393Z,985.82
2018-01-03T07:44:38.426Z,985.75
2018-01-03T07:46:05.879Z,985.69
2018-01-03T07:47:32.903Z,985.73
2018-01-03T07:49:00.240Z,985.67
2018-01-03T07:50:27.281Z,985.61
2018-01-03T07:51:54.570Z,985.48
2018-01-03T07:53:21.918Z,985.48
2018-01-03T07:54:49.051Z,985.33
2018-01-03T07:56:16.331Z,985.30
2018-01-03T07:57:43.240Z,985.25
2018-01-03T07:59:10.439Z,985.22
2018-01-03T08:00:37.339Z,985.20
2018-01-03T08:02:04.554Z,985.11
2018-01-03T08:03:31.631Z,985.06
2018-01-03T08:04:58.932Z,984.93
2018-01-03T08:06:26.038Z,984.79
2018-01-03T08:07:52.908Z,984.77
2018-01-03T08:09:20.116Z,984.69
2018-01-03T08:10:47.075Z,984.66
2018-01-03T08:12:13.952Z,984.56
2018-01-03T08:13:40.717Z,984.47
2018-01-03T08:15:07.839Z,984.49
2018-01-03T08:16:35.076Z,984.41
2018-01-03T08:18:02.269Z,984.57
2018-01-03T08:19:29.090Z,984.69
2018-01-03T08:20:56.461Z,984.77
2018-01-03T08:22:23.444Z,984.84
2018-01-03T08:23:50.805Z,984.93
2018-01-03T08:25:17.948Z,984.96
2018-01-03T08:26:44.965Z,984.93
2018-01-03T08:28:12.204Z,984.86
2018-01-03T08:29:39.356Z,984.81
2018-01-03T08:31:06.606Z,984.63
2018-01-03T08:32:33.718Z,984.57
2018-01-03T08:34:00.775Z,984.42
2018-01-03T08:35:28.064Z,984.31
2018-01-03T08:36:55.205Z,984.37
2018-01-03T08:38:22.595Z,984.46
2018-01-03T08:39:49.758Z,984.33
2018-01-03T08:41:16.809Z,984.23
2018-01-03T08:42:43.946Z,984.13
2018-01-03T08:44:11.257Z,983.97
2018-01-03T08:45:38.156Z,984.00
2018-01-03T08:47:05.209Z,983.98
2018-01-03T08:48:32.583Z,983.93
2018-01-03T08:50:00.022Z,983.93
2018-01-03T08:51:27.182Z,983.93
2018-01-03T08:52:54.322Z,983.93
2018-01-03T08:54:21.496Z,983.93
2018-01-03T08:55:48.660Z,983.87
2018-01-03T08:57:15.682Z,983.84
2018-01-03T08:58:43.023Z,983.89
2018-01-03T09:00:10.394Z,983.92
2018-01-03T09:01:37.685Z,983.92
2018-01-03T09:03:05.008Z,983.98
2018-01-03T09:04:32.321Z,984.03
2018-01-03T09:05:59.644Z,984.01
2018-01-03T09:07:26.917Z,984.00
2018-01-03T09:08:54.271Z,983.99
2018-01-03T09:10:21.464Z,983.99
2018-01-03T09:11:48.772Z,984.00
2018-01-03T09:13:15.980Z,983.96
2018-01-03T09:14:43.193Z,983.94
2018-01-03T09:16:10.541Z,983.98
2018-01-03T09:17:37.758Z,983.89
2018-01-03T09:19:04.981Z,983.89
2018-01-03T09:20:32.127Z,983.88
2018-01-03T09:21:59.404Z,983.87
2018-01-03T09:23:26.665Z,983.88
2018-01-03T09:24:53.876Z,983.88
2018-01-03T09:26:21.156Z,983.93
2018-01-03T09:27:48.389Z,984.00
2018-01-03T09:29:15.486Z,983.93
2018-01-03T09:30:42.619Z,983.94
2018-01-03T09:32:09.925Z,983.95
2018-01-03T09:33:37.169Z,983.93
2018-01-03T09:35:04.475Z,983.96
2018-01-03T09:36:31.777Z,984.01
2018-01-03T09:37:58.680Z,983.98
2018-01-03T09:39:26.109Z,983.98
2018-01-03T09:40:53.273Z,984.04
2018-01-03T09:42:20.570Z,983.98
2018-01-03T09:43:47.762Z,983.93
2018-01-03T09:45:14.944Z,984.05
2018-01-03T09:46:42.458Z,984.05
2018-01-03T09:48:09.772Z,984.03
2018-01-03T09:49:37.105Z,983.98
2018-01-03T09:51:04.367Z,983.97
2018-01-03T09:52:31.790Z,984.01
2018-01-03T09:53:59.259Z,984.03
2018-01-03T09:55:26.309Z,984.04
2018-01-03T09:56:53.507Z,983.94
2018-01-03T09:58:20.767Z,983.91
2018-01-03T09:59:47.980Z,983.93
2018-01-03T10:01:15.046Z,983.91
2018-01-03T10:02:42.180Z,983.93
2018-01-03T10:04:09.599Z,983.91
2018-01-03T10:05:36.784Z,983.91
2018-01-03T10:07:05.031Z,983.95
2018-01-03T10:08:31.382Z,983.96
2018-01-03T10:09:58.687Z,983.95
2018-01-03T10:11:26.059Z,983.88
2018-01-03T10:12:53.300Z,983.85
2018-01-03T10:14:20.602Z,983.83
2018-01-03T10:15:47.878Z,983.86
2018-01-03T10:17:14.935Z,983.88
2018-01-03T10:18:42.258Z,983.85
2018-01-03T10:20:09.590Z,983.89
2018-01-03T10:21:36.794Z,983.90
2018-01-03T10:23:03.995Z,983.84
2018-01-03T10:24:31.389Z,983.92
2018-01-03T10:25:58.566Z,983.91
2018-01-03T10:27:26.153Z,983.91
2018-01-03T10:28:53.436Z,983.96
2018-01-03T10:30:20.758Z,983.99
2018-01-03T10:31:47.849Z,984.00
2018-01-03T10:33:15.047Z,983.99
2018-01-03T10:34:42.227Z,984.11
2018-01-03T10:36:09.449Z,984.16
2018-01-03T10:37:36.805Z,984.17
2018-01-03T10:39:04.124Z,984.14
2018-01-03T10:40:31.348Z,984.13
2018-01-03T10:41:58.564Z,984.07
2018-01-03T10:43:25.834Z,984.08
2018-01-03T10:44:53.056Z,984.11
2018-01-03T10:46:20.190Z,984.09
2018-01-03T10:47:47.432Z,984.12
2018-01-03T10:49:14.475Z,984.08
2018-01-03T10:50:41.732Z,984.04
2018-01-03T10:52:09.211Z,984.04
2018-01-03T10:53:36.477Z,984.05
2018-01-03T10:55:03.855Z,984.08
2018-01-03T10:56:31.115Z,984.10
2018-01-03T10:57:58.376Z,984.14
2018-01-03T10:59:25.750Z,984.14
2018-01-03T11:00:52.969Z,984.21
2018-01-03T11:02:20.333Z,984.23
2018-01-03T11:03:47.675Z,984.21
2018-01-03T11:05:14.976Z,984.20
2018-01-03T11:06:42.123Z,984.22
2018-01-03T11:08:09.384Z,984.24
2018-01-03T11:09:36.639Z,984.19
2018-01-03T11:11:04.044Z,984.14
2018-01-03T11:12:31.103Z,984.15
2018-01-03T11:13:58.570Z,984.13
2018-01-03T11:15:25.815Z,984.10
2018-01-03T11:16:53.012Z,984.09
2018-01-03T11:18:20.241Z,984.04
2018-01-03T11:19:47.548Z,984.09
2018-01-03T11:21:14.567Z,984.09
2018-01-03T11:22:41.781Z,984.08
2018-01-03T11:24:08.958Z,984.09
2018-01-03T11:25:36.417Z,984.07
2018-01-03T11:27:03.659Z,984.11
2018-01-03T11:28:30.982Z,984.10
2018-01-03T11:29:58.376Z,984.07
2018-01-03T11:31:25.596Z,984.04
2018-01-03T11:32:52.966Z,984.04
2018-01-03T11:34:20.244Z,984.07
2018-01-03T11:35:47.503Z,984.10
2018-01-03T11:37:14.647Z,984.07
2018-01-03T11:38:41.852Z,984.04
2018-01-03T11:40:09.071Z,984.05
2018-01-03T11:41:36.435Z,984.11
2018-01-03T11:43:03.396Z,984.06
2018-01-03T11:44:30.822Z,984.08
2018-01-03T11:45:57.914Z,984.07
2018-01-03T11:47:25.207Z,984.06
2018-01-03T11:48:52.388Z,984.10
2018-01-03T11:50:19.614Z,984.08
2018-01-03T11:51:47.786Z,984.04
2018-01-03T11:53:13.924Z,984.03
2018-01-03T11:54:41.010Z,984.02
2018-01-03T11:56:08.365Z,984.02
2018-01-03T11:57:35.698Z,984.00
2018-01-03T11:59:03.007Z,984.02
2018-01-03T12:00:30.447Z,984.04
2018-01-03T12:01:57.710Z,984.01
2018-01-03T12:03:24.712Z,984.01
2018-01-03T12:04:52.006Z,984.07
2018-01-03T12:06:19.257Z,984.11
2018-01-03T12:07:46.338Z,984.10
2018-01-03T12:09:13.524Z,984.17
2018-01-03T12:10:40.730Z,984.17
2018-01-03T12:12:08.015Z,984.17
2018-01-03T12:13:35.335Z,984.16
2018-01-03T12:15:02.732Z,984.18
2018-01-03T12:16:29.911Z,984.20
2018-01-03T12:17:57.204Z,984.23
2018-01-03T12:19:24.539Z,984.24
2018-01-03T12:20:51.906Z,984.29
2018-01-03T12:22:18.983Z,984.29
2018-01-03T12:23:46.201Z,984.34
2018-01-03T12:25:13.653Z,984.35
2018-01-03T12:26:40.790Z,984.40
2018-01-03T12:28:07.967Z,984.40
2018-01-03T12:29:35.249Z,984.40
2018-01-03T12:31:02.490Z,984.45
2018-01-03T12:32:29.958Z,984.46
2018-01-03T12:33:56.905Z,984.48
2018-01-03T12:35:24.202Z,984.50
2018-01-03T12:36:51.192Z,984.56
2018-01-03T12:38:18.260Z,984.58
2018-01-03T12:39:45.205Z,984.63
2018-01-03T12:41:14.447Z,984.73
2018-01-03T12:42:39.884Z,984.73
2018-01-03T12:44:07.060Z,984.83
2018-01-03T12:45:35.059Z,984.89
2018-01-03T12:47:01.277Z,984.93
2018-01-03T12:48:28.564Z,984.95
2018-01-03T12:49:55.805Z,984.92
2018-01-03T12:51:23.035Z,984.91
2018-01-03T12:52:50.009Z,984.97
2018-01-03T12:54:17.041Z,984.89
2018-01-03T12:55:44.312Z,984.93
2018-01-03T12:57:12.345Z,984.96
2018-01-03T12:58:38.366Z,985.01
2018-01-03T13:00:05.802Z,985.01
2018-01-03T13:01:32.711Z,984.99
2018-01-03T13:03:00.043Z,985.01
2018-01-03T13:04:27.337Z,985.01
2018-01-03T13:05:54.599Z,985.01
2018-01-03T13:07:21.740Z,985.04
2018-01-03T13:08:48.991Z,985.02
2018-01-03T13:10:16.048Z,985.03
2018-01-03T13:11:43.055Z,985.03
2018-01-03T13:13:10.144Z,985.05
2018-01-03T13:14:37.595Z,985.03
2018-01-03T13:16:04.765Z,985.03
2018-01-03T13:17:31.922Z,985.03
2018-01-03T13:18:59.136Z,985.04
2018-01-03T13:20:26.364Z,985.03
2018-01-03T13:21:53.629Z,985.02
2018-01-03T13:23:20.936Z,985.09
2018-01-03T13:24:48.177Z,985.05
2018-01-03T13:26:15.423Z,985.06
2018-01-03T13:27:42.594Z,985.06
2018-01-03T13:29:09.834Z,985.07
2018-01-03T13:30:37.181Z,985.07
2018-01-03T13:32:04.290Z,985.03
2018-01-03T13:33:31.375Z,985.02
2018-01-03T13:34:58.732Z,985.00
2018-01-03T13:36:26.128Z,985.02
2018-01-03T13:37:53.429Z,985.02
2018-01-03T13:39:20.341Z,985.03
2018-01-03T13:40:47.653Z,985.02
2018-01-03T13:42:14.813Z,985.00
2018-01-03T13:43:41.924Z,985.01
2018-01-03T13:45:09.255Z,985.03
2018-01-03T13:46:36.786Z,985.05
2018-01-03T13:48:04.131Z,985.10
2018-01-03T13:49:30.920Z,985.11
2018-01-03T13:50:58.140Z,985.11
2018-01-03T13:52:25.220Z,985.15
2018-01-03T13:53:52.498Z,985.15
2018-01-03T13:55:19.876Z,985.21
2018-01-03T13:56:47.101Z,985.22
2018-01-03T13:58:14.466Z,985.22
2018-01-03T13:59:41.279Z,985.27
2018-01-03T14:01:08.326Z,985.21
2018-01-03T14:02:35.764Z,985.22
2018-01-03T14:04:03.068Z,985.23
2018-01-03T14:05:30.428Z,985.26
2018-01-03T14:06:57.633Z,985.25
2018-01-03T14:08:24.907Z,985.27
2018-01-03T14:09:51.833Z,985.26
2018-01-03T14:11:19.179Z,985.24
2018-01-03T14:12:46.389Z,985.25
2018-01-03T14:14:13.546Z,985.24
2018-01-03T14:15:40.297Z,985.25
2018-01-03T14:17:07.615Z,985.23
2018-01-03T14:18:34.976Z,985.22
2018-01-03T14:20:02.291Z,985.21
2018-01-03T14:21:29.632Z,985.18
2018-01-03T14:22:56.721Z,985.19
2018-01-03T14:24:23.969Z,985.14
2018-01-03T14:25:51.378Z,985.12
2018-01-03T14:27:18.673Z,985.12
2018-01-03T14:28:45.896Z,985.13
2018-01-03T14:30:13.339Z,985.11
2018-01-03T14:31:40.503Z,985.09
2018-01-03T14:33:07.644Z,985.08
2018-01-03T14:34:35.015Z,985.09
2018-01-03T14:36:01.827Z,985.10
2018-01-03T14:37:29.126Z,985.08
2018-01-03T14:38:56.262Z,985.08
2018-01-03T14:40:23.743Z,985.08
2018-01-03T14:41:50.856Z,985.08
2018-01-03T14:43:18.007Z,985.09
2018-01-03T14:44:44.992Z,985.10
2018-01-03T14:46:12.046Z,985.10
2018-01-03T14:47:38.860Z,985.08
2018-01-03T14:49:05.356Z,985.06
2018-01-03T14:50:32.752Z,985.05
2018-01-03T14:52:00.174Z,985.05
2018-01-03T14:53:27.414Z,985.02
2018-01-03T14:54:54.551Z,984.96
2018-01-03T14:56:21.586Z,984.95
2018-01-03T14:57:48.493Z,984.96
2018-01-03T14:59:15.805Z,984.95
2018-01-03T15:00:43.038Z,984.95
2018-01-03T15:02:10.306Z,984.96
2018-01-03T15:03:37.677Z,984.91
2018-01-03T15:05:04.935Z,984.88
2018-01-03T15:06:31.962Z,984.90
2018-01-03T15:07:59.173Z,984.86
2018-01-03T15:09:26.490Z,984.84
2018-01-03T15:10:53.692Z,984.82
2018-01-03T15:12:20.847Z,984.80
2018-01-03T15:13:47.642Z,984.76
2018-01-03T15:15:14.825Z,984.75
2018-01-03T15:16:41.729Z,984.77
2018-01-03T15:18:09.012Z,984.72
2018-01-03T15:19:36.504Z,984.73
2018-01-03T15:21:03.862Z,984.74
2018-01-03T15:22:31.163Z,984.72
2018-01-03T15:23:58.539Z,984.67
2018-01-03T15:25:25.632Z,984.69
2018-01-03T15:26:52.846Z,984.67
2018-01-03T15:28:20.021Z,984.65
2018-01-03T15:29:47.112Z,984.66
2018-01-03T15:31:14.200Z,984.68
2018-01-03T15:32:41.595Z,984.65
2018-01-03T15:34:08.843Z,984.62
2018-01-03T15:35:36.290Z,984.60
2018-01-03T15:37:03.605Z,984.61
2018-01-03T15:38:30.547Z,984.65
2018-01-03T15:39:57.710Z,984.57
2018-01-03T15:41:25.055Z,984.58
2018-01-03T15:42:52.185Z,984.53
2018-01-03T15:44:19.412Z,984.53
2018-01-03T15:45:46.419Z,984.57
2018-01-03T15:47:13.499Z,984.52
2018-01-03T15:48:40.790Z,984.54
2018-01-03T15:50:07.960Z,984.47
2018-01-03T15:51:35.218Z,984.50
2018-01-03T15:53:02.388Z,984.48
2018-01-03T15:54:29.529Z,984.41
2018-01-03T15:55:56.802Z,984.38
2018-01-03T15:57:24.073Z,984.39
2018-01-03T15:58:51.466Z,984.37
2018-01-03T16:00:18.560Z,984.34
2018-01-03T16:01:45.815Z,984.31
2018-01-03T16:03:13.149Z,984.35
2018-01-03T16:04:40.173Z,984.34
2018-01-03T16:06:07.198Z,984.32
2018-01-03T16:07:34.226Z,984.32
2018-01-03T16:09:01.671Z,984.35
2018-01-03T16:10:29.011Z,984.26
2018-01-03T16:11:56.409Z,984.28
2018-01-03T16:13:23.368Z,984.27
2018-01-03T16:14:50.677Z,984.27
2018-01-03T16:16:17.876Z,984.30
2018-01-03T16:17:45.127Z,984.29
2018-01-03T16:19:12.342Z,984.25
2018-01-03T16:20:39.598Z,984.27
2018-01-03T16:22:06.958Z,984.32
2018-01-03T16:23:34.148Z,984.28
2018-01-03T16:25:01.441Z,984.25
2018-01-03T16:26:28.854Z,984.27
2018-01-03T16:27:56.019Z,984.25
2018-01-03T16:29:23.188Z,984.26
2018-01-03T16:30:50.239Z,984.23
2018-01-03T16:32:17.475Z,984.22
2018-01-03T16:33:44.461Z,984.22
2018-01-03T16:35:11.604Z,984.19
2018-01-03T16:36:38.878Z,984.14
2018-01-03T16:38:06.270Z,984.16
2018-01-03T16:39:33.243Z,984.13
2018-01-03T16:41:00.156Z,984.14
2018-01-03T16:42:27.449Z,984.11
2018-01-03T16:43:54.954Z,984.07
2018-01-03T16:45:22.132Z,984.06
2018-01-03T16:46:49.165Z,984.08
2018-01-03T16:48:16.324Z,984.05
2018-01-03T16:49:43.597Z,984.04
2018-01-03T16:51:10.551Z,984.05
2018-01-03T16:52:37.434Z,984.05
2018-01-03T16:54:04.712Z,984.04
2018-01-03T16:55:32.069Z,984.00
2018-01-03T16:56:59.363Z,984.05
2018-01-03T16:58:26.692Z,984.05
2018-01-03T16:59:54.020Z,984.06
2018-01-03T17:01:21.221Z,984.06
2018-01-03T17:02:48.381Z,984.09
2018-01-03T17:04:15.302Z,984.10
2018-01-03T17:05:42.565Z,984.09
2018-01-03T17:07:10.086Z,984.11
2018-01-03T17:08:37.191Z,984.05
2018-01-03T17:10:04.490Z,984.08
2018-01-03T17:11:31.721Z,984.08
2018-01-03T17:12:59.041Z,984.01
2018-01-03T17:14:26.415Z,983.96
2018-01-03T17:15:53.415Z,983.97
2018-01-03T17:17:20.772Z,983.97
2018-01-03T17:18:48.046Z,984.00
2018-01-03T17:20:15.215Z,984.00
2018-01-03T17:21:42.377Z,983.98
2018-01-03T17:23:09.815Z,984.01
2018-01-03T17:24:36.741Z,983.95
2018-01-03T17:26:03.935Z,983.96
2018-01-03T17:27:31.222Z,984.01
2018-01-03T17:28:58.534Z,984.00
2018-01-03T17:30:25.558Z,983.96
2018-01-03T17:31:52.502Z,984.01
2018-01-03T17:33:19.149Z,983.98
2018-01-03T17:34:46.144Z,983.97
2018-01-03T17:36:13.626Z,983.96
2018-01-03T17:37:40.836Z,983.98
2018-01-03T17:39:08.152Z,983.91
2018-01-03T17:40:35.541Z,983.99
2018-01-03T17:42:02.854Z,983.96
2018-01-03T17:43:30.151Z,983.93
2018-01-03T17:44:57.581Z,983.99
2018-01-03T17:46:24.757Z,983.99
2018-01-03T17:47:51.969Z,984.00
2018-01-03T17:49:19.171Z,983.98
2018-01-03T17:50:46.225Z,983.99
2018-01-03T17:52:13.715Z,984.00
2018-01-03T17:53:41.006Z,984.01
2018-01-03T17:55:08.354Z,984.04
2018-01-03T17:56:35.765Z,984.02
2018-01-03T17:58:02.827Z,983.99
2018-01-03T17:59:30.011Z,984.00
2018-01-03T18:00:56.841Z,983.99
2018-01-03T18:02:23.653Z,984.01